sensor_id;sensor_type;location;lat;lon;timestamp;P1;durP1;ratioP1;P2;durP2;ratioP2
47856;SDS011;33618;49.972;8.242;2023-09-18T00:00:43;9.60;;;6.80;;
47856;SDS011;33618;49.972;8.242;2023-09-18T00:03:11;9.23;;;6.80;;
47856;SDS011;33618;49.972;8.242;2023-09-18T00:05:38;8.15;;;6.00;;
47856;SDS011;33618;49.972;8.242;2023-09-18T00:08:05;8.30;;;6.25;;
47856;SDS011;33618;49.972;8.242;2023-09-18T00:10:32;7.85;;;5.55;;
47856;SDS011;33618;49.972;8.242;2023-09-18T00:12:59;10.25;;;6.90;;
47856;SDS011;33618;49.972;8.242;2023-09-18T00:15:27;7.00;;;5.57;;
47856;SDS011;33618;49.972;8.242;2023-09-18T00:17:54;7.18;;;5.63;;
47856;SDS011;33618;49.972;8.242;2023-09-18T00:20:21;9.00;;;6.20;;
47856;SDS011;33618;49.972;8.242;2023-09-18T00:22:54;7.20;;;5.28;;
47856;SDS011;33618;49.972;8.242;2023-09-18T00:25:22;8.90;;;5.70;;
47856;SDS011;33618;49.972;8.242;2023-09-18T00:27:49;9.85;;;5.28;;
47856;SDS011;33618;49.972;8.242;2023-09-18T00:30:17;10.20;;;5.40;;
47856;SDS011;33618;49.972;8.242;2023-09-18T00:32:44;8.90;;;5.47;;
47856;SDS011;33618;49.972;8.242;2023-09-18T00:35:13;7.70;;;5.45;;
47856;SDS011;33618;49.972;8.242;2023-09-18T00:37:40;8.10;;;6.20;;
47856;SDS011;33618;49.972;8.242;2023-09-18T00:40:09;8.57;;;5.40;;
47856;SDS011;33618;49.972;8.242;2023-09-18T00:42:37;8.27;;;5.60;;
47856;SDS011;33618;49.972;8.242;2023-09-18T00:45:04;10.68;;;5.40;;
47856;SDS011;33618;49.972;8.242;2023-09-18T00:47:31;7.97;;;5.38;;
47856;SDS011;33618;49.972;8.242;2023-09-18T00:49:58;6.20;;;5.60;;
47856;SDS011;33618;49.972;8.242;2023-09-18T00:52:26;8.52;;;5.28;;
47856;SDS011;33618;49.972;8.242;2023-09-18T00:54:53;13.95;;;6.32;;
47856;SDS011;33618;49.972;8.242;2023-09-18T00:57:22;9.13;;;5.57;;
47856;SDS011;33618;49.972;8.242;2023-09-18T00:59:49;7.85;;;5.70;;
47856;SDS011;33618;49.972;8.242;2023-09-18T01:02:17;8.88;;;5.45;;
47856;SDS011;33618;49.972;8.242;2023-09-18T01:04:47;10.10;;;5.50;;
47856;SDS011;33618;49.972;8.242;2023-09-18T01:07:15;8.73;;;4.88;;
47856;SDS011;33618;49.972;8.242;2023-09-18T01:09:42;9.75;;;5.40;;
47856;SDS011;33618;49.972;8.242;2023-09-18T01:12:17;8.68;;;5.32;;
47856;SDS011;33618;49.972;8.242;2023-09-18T01:15:15;6.60;;;5.35;;
47856;SDS011;33618;49.972;8.242;2023-09-18T01:17:47;6.35;;;5.00;;
47856;SDS011;33618;49.972;8.242;2023-09-18T01:20:15;6.13;;;4.85;;
47856;SDS011;33618;49.972;8.242;2023-09-18T01:22:42;9.43;;;5.65;;
47856;SDS011;33618;49.972;8.242;2023-09-18T01:25:09;6.57;;;5.40;;
47856;SDS011;33618;49.972;8.242;2023-09-18T01:27:36;6.90;;;5.13;;
47856;SDS011;33618;49.972;8.242;2023-09-18T01:30:03;8.95;;;5.30;;
47856;SDS011;33618;49.972;8.242;2023-09-18T01:32:31;6.90;;;5.28;;
47856;SDS011;33618;49.972;8.242;2023-09-18T01:35:02;9.18;;;5.70;;
47856;SDS011;33618;49.972;8.242;2023-09-18T01:37:31;6.63;;;4.82;;
47856;SDS011;33618;49.972;8.242;2023-09-18T01:40:02;7.40;;;5.13;;
47856;SDS011;33618;49.972;8.242;2023-09-18T01:42:33;10.73;;;5.60;;
47856;SDS011;33618;49.972;8.242;2023-09-18T01:45:01;9.65;;;5.13;;
47856;SDS011;33618;49.972;8.242;2023-09-18T01:47:29;8.23;;;5.05;;
47856;SDS011;33618;49.972;8.242;2023-09-18T01:49:56;7.90;;;5.40;;
47856;SDS011;33618;49.972;8.242;2023-09-18T01:52:23;7.90;;;5.20;;
47856;SDS011;33618;49.972;8.242;2023-09-18T01:54:50;24.67;;;6.50;;
47856;SDS011;33618;49.972;8.242;2023-09-18T01:57:17;15.13;;;6.93;;
47856;SDS011;33618;49.972;8.242;2023-09-18T01:59:44;17.30;;;7.20;;
47856;SDS011;33618;49.972;8.242;2023-09-18T02:02:12;11.88;;;6.95;;
47856;SDS011;33618;49.972;8.242;2023-09-18T02:04:50;15.52;;;7.15;;
47856;SDS011;33618;49.972;8.242;2023-09-18T02:07:33;9.30;;;6.75;;
47856;SDS011;33618;49.972;8.242;2023-09-18T02:10:01;9.80;;;7.15;;
47856;SDS011;33618;49.972;8.242;2023-09-18T02:12:29;13.00;;;7.38;;
47856;SDS011;33618;49.972;8.242;2023-09-18T02:14:56;15.25;;;8.05;;
47856;SDS011;33618;49.972;8.242;2023-09-18T02:17:25;10.75;;;7.35;;
47856;SDS011;33618;49.972;8.242;2023-09-18T02:19:52;12.25;;;7.97;;
47856;SDS011;33618;49.972;8.242;2023-09-18T02:22:18;10.23;;;7.68;;
47856;SDS011;33618;49.972;8.242;2023-09-18T02:24:45;11.10;;;7.45;;
47856;SDS011;33618;49.972;8.242;2023-09-18T02:27:12;10.13;;;7.32;;
47856;SDS011;33618;49.972;8.242;2023-09-18T02:29:42;7.97;;;6.80;;
47856;SDS011;33618;49.972;8.242;2023-09-18T02:32:09;8.80;;;7.03;;
47856;SDS011;33618;49.972;8.242;2023-09-18T02:34:36;10.20;;;7.50;;
47856;SDS011;33618;49.972;8.242;2023-09-18T02:37:03;12.93;;;7.60;;
47856;SDS011;33618;49.972;8.242;2023-09-18T02:39:30;12.45;;;7.20;;
47856;SDS011;33618;49.972;8.242;2023-09-18T02:41:57;11.60;;;7.32;;
47856;SDS011;33618;49.972;8.242;2023-09-18T02:44:24;13.25;;;7.72;;
47856;SDS011;33618;49.972;8.242;2023-09-18T02:46:51;12.05;;;7.55;;
47856;SDS011;33618;49.972;8.242;2023-09-18T02:49:19;11.50;;;7.05;;
47856;SDS011;33618;49.972;8.242;2023-09-18T02:51:46;10.40;;;7.35;;
47856;SDS011;33618;49.972;8.242;2023-09-18T02:54:13;8.52;;;6.38;;
47856;SDS011;33618;49.972;8.242;2023-09-18T02:56:40;14.65;;;6.85;;
47856;SDS011;33618;49.972;8.242;2023-09-18T02:59:07;8.10;;;7.18;;
47856;SDS011;33618;49.972;8.242;2023-09-18T03:01:35;11.73;;;6.93;;
47856;SDS011;33618;49.972;8.242;2023-09-18T03:04:01;9.65;;;6.63;;
47856;SDS011;33618;49.972;8.242;2023-09-18T03:06:29;8.23;;;7.35;;
47856;SDS011;33618;49.972;8.242;2023-09-18T03:08:55;11.95;;;6.50;;
47856;SDS011;33618;49.972;8.242;2023-09-18T03:11:22;9.43;;;6.70;;
47856;SDS011;33618;49.972;8.242;2023-09-18T03:13:53;14.82;;;6.82;;
47856;SDS011;33618;49.972;8.242;2023-09-18T03:16:22;7.32;;;6.22;;
47856;SDS011;33618;49.972;8.242;2023-09-18T03:18:49;10.95;;;8.32;;
47856;SDS011;33618;49.972;8.242;2023-09-18T03:21:16;10.90;;;6.60;;
47856;SDS011;33618;49.972;8.242;2023-09-18T03:23:43;16.02;;;9.10;;
47856;SDS011;33618;49.972;8.242;2023-09-18T03:26:10;9.57;;;7.18;;
47856;SDS011;33618;49.972;8.242;2023-09-18T03:28:37;11.63;;;7.60;;
47856;SDS011;33618;49.972;8.242;2023-09-18T03:31:04;9.35;;;6.90;;
47856;SDS011;33618;49.972;8.242;2023-09-18T03:33:33;9.85;;;7.50;;
47856;SDS011;33618;49.972;8.242;2023-09-18T03:36:00;13.52;;;7.75;;
47856;SDS011;33618;49.972;8.242;2023-09-18T03:38:27;15.93;;;7.25;;
47856;SDS011;33618;49.972;8.242;2023-09-18T03:40:54;10.43;;;6.78;;
47856;SDS011;33618;49.972;8.242;2023-09-18T03:43:21;7.97;;;6.40;;
47856;SDS011;33618;49.972;8.242;2023-09-18T03:45:47;9.80;;;6.43;;
47856;SDS011;33618;49.972;8.242;2023-09-18T03:48:14;15.75;;;6.60;;
47856;SDS011;33618;49.972;8.242;2023-09-18T03:50:41;11.32;;;5.97;;
47856;SDS011;33618;49.972;8.242;2023-09-18T03:53:09;9.38;;;5.38;;
47856;SDS011;33618;49.972;8.242;2023-09-18T03:55:36;7.25;;;5.15;;
47856;SDS011;33618;49.972;8.242;2023-09-18T03:58:04;9.50;;;5.30;;
47856;SDS011;33618;49.972;8.242;2023-09-18T04:00:31;9.55;;;4.82;;
47856;SDS011;33618;49.972;8.242;2023-09-18T04:02:58;5.72;;;4.70;;
47856;SDS011;33618;49.972;8.242;2023-09-18T04:05:25;11.55;;;4.63;;
47856;SDS011;33618;49.972;8.242;2023-09-18T04:07:52;5.25;;;4.22;;
47856;SDS011;33618;49.972;8.242;2023-09-18T04:10:19;9.25;;;4.40;;
47856;SDS011;33618;49.972;8.242;2023-09-18T04:12:50;8.77;;;4.43;;
47856;SDS011;33618;49.972;8.242;2023-09-18T04:15:18;6.85;;;4.78;;
47856;SDS011;33618;49.972;8.242;2023-09-18T04:17:45;7.40;;;4.82;;
47856;SDS011;33618;49.972;8.242;2023-09-18T04:20:13;7.07;;;4.72;;
47856;SDS011;33618;49.972;8.242;2023-09-18T04:22:42;8.82;;;4.45;;
47856;SDS011;33618;49.972;8.242;2023-09-18T04:25:11;9.23;;;4.32;;
47856;SDS011;33618;49.972;8.242;2023-09-18T04:27:39;7.60;;;4.30;;
47856;SDS011;33618;49.972;8.242;2023-09-18T04:30:06;7.60;;;4.00;;
47856;SDS011;33618;49.972;8.242;2023-09-18T04:32:36;6.18;;;4.05;;
47856;SDS011;33618;49.972;8.242;2023-09-18T04:35:04;7.57;;;4.10;;
47856;SDS011;33618;49.972;8.242;2023-09-18T04:37:35;11.00;;;3.97;;
47856;SDS011;33618;49.972;8.242;2023-09-18T04:40:04;8.15;;;3.65;;
47856;SDS011;33618;49.972;8.242;2023-09-18T04:42:35;8.45;;;4.00;;
47856;SDS011;33618;49.972;8.242;2023-09-18T04:45:03;8.70;;;4.20;;
47856;SDS011;33618;49.972;8.242;2023-09-18T04:47:31;8.45;;;4.20;;
47856;SDS011;33618;49.972;8.242;2023-09-18T04:49:59;8.38;;;3.80;;
47856;SDS011;33618;49.972;8.242;2023-09-18T04:52:25;10.45;;;4.10;;
47856;SDS011;33618;49.972;8.242;2023-09-18T04:54:52;10.02;;;4.40;;
47856;SDS011;33618;49.972;8.242;2023-09-18T04:57:20;9.07;;;4.25;;
47856;SDS011;33618;49.972;8.242;2023-09-18T04:59:48;10.43;;;3.97;;
47856;SDS011;33618;49.972;8.242;2023-09-18T05:02:35;11.23;;;4.53;;
47856;SDS011;33618;49.972;8.242;2023-09-18T05:05:02;7.45;;;4.25;;
47856;SDS011;33618;49.972;8.242;2023-09-18T05:07:30;7.35;;;3.90;;
47856;SDS011;33618;49.972;8.242;2023-09-18T05:09:58;9.65;;;4.25;;
47856;SDS011;33618;49.972;8.242;2023-09-18T05:12:25;6.10;;;3.72;;
47856;SDS011;33618;49.972;8.242;2023-09-18T05:14:52;10.35;;;3.67;;
47856;SDS011;33618;49.972;8.242;2023-09-18T05:17:19;7.15;;;3.63;;
47856;SDS011;33618;49.972;8.242;2023-09-18T05:19:46;8.48;;;3.88;;
47856;SDS011;33618;49.972;8.242;2023-09-18T05:22:13;12.77;;;4.28;;
47856;SDS011;33618;49.972;8.242;2023-09-18T05:24:40;8.68;;;3.60;;
47856;SDS011;33618;49.972;8.242;2023-09-18T05:27:07;12.30;;;4.10;;
47856;SDS011;33618;49.972;8.242;2023-09-18T05:29:34;10.00;;;3.58;;
47856;SDS011;33618;49.972;8.242;2023-09-18T05:32:03;15.75;;;4.07;;
47856;SDS011;33618;49.972;8.242;2023-09-18T05:34:30;12.30;;;4.22;;
47856;SDS011;33618;49.972;8.242;2023-09-18T05:36:58;10.95;;;3.60;;
47856;SDS011;33618;49.972;8.242;2023-09-18T05:39:25;15.55;;;4.10;;
47856;SDS011;33618;49.972;8.242;2023-09-18T05:41:52;15.32;;;4.20;;
47856;SDS011;33618;49.972;8.242;2023-09-18T05:44:19;10.85;;;3.90;;
47856;SDS011;33618;49.972;8.242;2023-09-18T05:46:45;12.68;;;4.07;;
47856;SDS011;33618;49.972;8.242;2023-09-18T05:49:12;17.02;;;3.95;;
47856;SDS011;33618;49.972;8.242;2023-09-18T05:51:39;8.98;;;3.80;;
47856;SDS011;33618;49.972;8.242;2023-09-18T05:54:06;14.02;;;4.10;;
47856;SDS011;33618;49.972;8.242;2023-09-18T05:56:33;12.65;;;3.80;;
47856;SDS011;33618;49.972;8.242;2023-09-18T05:59:00;13.65;;;3.72;;
47856;SDS011;33618;49.972;8.242;2023-09-18T06:01:27;15.93;;;3.95;;
47856;SDS011;33618;49.972;8.242;2023-09-18T06:03:54;16.23;;;3.65;;
47856;SDS011;33618;49.972;8.242;2023-09-18T06:06:22;10.35;;;3.40;;
47856;SDS011;33618;49.972;8.242;2023-09-18T06:08:49;13.73;;;3.40;;
47856;SDS011;33618;49.972;8.242;2023-09-18T06:11:16;15.10;;;3.67;;
47856;SDS011;33618;49.972;8.242;2023-09-18T06:13:44;14.98;;;3.60;;
47856;SDS011;33618;49.972;8.242;2023-09-18T06:16:12;8.68;;;3.80;;
47856;SDS011;33618;49.972;8.242;2023-09-18T06:18:38;11.43;;;3.38;;
47856;SDS011;33618;49.972;8.242;2023-09-18T06:21:05;10.70;;;3.72;;
47856;SDS011;33618;49.972;8.242;2023-09-18T06:23:32;15.05;;;3.70;;
47856;SDS011;33618;49.972;8.242;2023-09-18T06:25:59;12.98;;;4.00;;
47856;SDS011;33618;49.972;8.242;2023-09-18T06:28:28;15.20;;;3.80;;
47856;SDS011;33618;49.972;8.242;2023-09-18T06:30:55;7.80;;;3.13;;
47856;SDS011;33618;49.972;8.242;2023-09-18T06:33:22;20.58;;;3.97;;
47856;SDS011;33618;49.972;8.242;2023-09-18T06:35:49;11.30;;;3.60;;
47856;SDS011;33618;49.972;8.242;2023-09-18T06:38:18;13.80;;;3.85;;
47856;SDS011;33618;49.972;8.242;2023-09-18T06:40:46;15.35;;;3.30;;
47856;SDS011;33618;49.972;8.242;2023-09-18T06:43:13;8.38;;;3.20;;
47856;SDS011;33618;49.972;8.242;2023-09-18T06:45:40;13.20;;;3.25;;
47856;SDS011;33618;49.972;8.242;2023-09-18T06:48:07;12.60;;;3.45;;
47856;SDS011;33618;49.972;8.242;2023-09-18T06:50:34;13.48;;;3.40;;
47856;SDS011;33618;49.972;8.242;2023-09-18T06:53:02;12.77;;;3.67;;
47856;SDS011;33618;49.972;8.242;2023-09-18T06:55:29;7.95;;;3.33;;
47856;SDS011;33618;49.972;8.242;2023-09-18T06:57:57;9.20;;;3.22;;
47856;SDS011;33618;49.972;8.242;2023-09-18T07:00:23;13.02;;;3.53;;
47856;SDS011;33618;49.972;8.242;2023-09-18T07:02:50;11.77;;;3.40;;
47856;SDS011;33618;49.972;8.242;2023-09-18T07:05:17;9.55;;;3.30;;
47856;SDS011;33618;49.972;8.242;2023-09-18T07:07:44;10.45;;;3.40;;
47856;SDS011;33618;49.972;8.242;2023-09-18T07:10:11;8.65;;;3.20;;
47856;SDS011;33618;49.972;8.242;2023-09-18T07:12:38;13.13;;;3.13;;
47856;SDS011;33618;49.972;8.242;2023-09-18T07:15:05;9.02;;;3.10;;
47856;SDS011;33618;49.972;8.242;2023-09-18T07:17:33;10.00;;;3.70;;
47856;SDS011;33618;49.972;8.242;2023-09-18T07:20:02;9.07;;;3.60;;
47856;SDS011;33618;49.972;8.242;2023-09-18T07:22:40;9.90;;;3.10;;
47856;SDS011;33618;49.972;8.242;2023-09-18T07:25:11;10.57;;;3.10;;
47856;SDS011;33618;49.972;8.242;2023-09-18T07:27:38;7.63;;;3.05;;
47856;SDS011;33618;49.972;8.242;2023-09-18T07:30:10;13.25;;;3.75;;
47856;SDS011;33618;49.972;8.242;2023-09-18T07:32:41;13.48;;;3.55;;
47856;SDS011;33618;49.972;8.242;2023-09-18T07:35:09;9.32;;;3.05;;
47856;SDS011;33618;49.972;8.242;2023-09-18T07:37:36;12.32;;;3.65;;
47856;SDS011;33618;49.972;8.242;2023-09-18T07:40:04;12.15;;;3.50;;
47856;SDS011;33618;49.972;8.242;2023-09-18T07:42:32;13.38;;;3.58;;
47856;SDS011;33618;49.972;8.242;2023-09-18T07:44:59;8.02;;;3.38;;
47856;SDS011;33618;49.972;8.242;2023-09-18T07:47:26;14.30;;;3.97;;
47856;SDS011;33618;49.972;8.242;2023-09-18T07:49:53;12.18;;;3.38;;
47856;SDS011;33618;49.972;8.242;2023-09-18T07:52:21;14.43;;;3.90;;
47856;SDS011;33618;49.972;8.242;2023-09-18T07:54:47;11.38;;;3.47;;
47856;SDS011;33618;49.972;8.242;2023-09-18T07:57:15;8.00;;;3.75;;
47856;SDS011;33618;49.972;8.242;2023-09-18T07:59:42;11.93;;;3.35;;
47856;SDS011;33618;49.972;8.242;2023-09-18T08:02:09;11.43;;;3.35;;
47856;SDS011;33618;49.972;8.242;2023-09-18T08:04:36;11.18;;;2.90;;
47856;SDS011;33618;49.972;8.242;2023-09-18T08:07:04;7.95;;;3.08;;
47856;SDS011;33618;49.972;8.242;2023-09-18T08:09:33;7.70;;;2.70;;
47856;SDS011;33618;49.972;8.242;2023-09-18T08:12:03;8.27;;;3.08;;
47856;SDS011;33618;49.972;8.242;2023-09-18T08:14:30;10.88;;;2.85;;
47856;SDS011;33618;49.972;8.242;2023-09-18T08:16:58;15.90;;;3.47;;
47856;SDS011;33618;49.972;8.242;2023-09-18T08:19:26;11.15;;;3.10;;
47856;SDS011;33618;49.972;8.242;2023-09-18T08:21:54;9.23;;;2.50;;
47856;SDS011;33618;49.972;8.242;2023-09-18T08:24:23;11.73;;;2.65;;
47856;SDS011;33618;49.972;8.242;2023-09-18T08:26:50;4.85;;;2.50;;
47856;SDS011;33618;49.972;8.242;2023-09-18T08:29:17;10.13;;;2.50;;
47856;SDS011;33618;49.972;8.242;2023-09-18T08:31:44;6.63;;;2.17;;
47856;SDS011;33618;49.972;8.242;2023-09-18T08:34:11;8.23;;;2.53;;
47856;SDS011;33618;49.972;8.242;2023-09-18T08:36:38;6.70;;;2.20;;
47856;SDS011;33618;49.972;8.242;2023-09-18T08:39:05;8.45;;;2.17;;
47856;SDS011;33618;49.972;8.242;2023-09-18T08:41:32;6.85;;;2.15;;
47856;SDS011;33618;49.972;8.242;2023-09-18T08:44:02;6.07;;;2.03;;
47856;SDS011;33618;49.972;8.242;2023-09-18T08:46:30;4.28;;;1.80;;
47856;SDS011;33618;49.972;8.242;2023-09-18T08:48:59;4.70;;;2.30;;
47856;SDS011;33618;49.972;8.242;2023-09-18T08:51:26;5.78;;;1.95;;
47856;SDS011;33618;49.972;8.242;2023-09-18T08:53:55;5.53;;;2.22;;
47856;SDS011;33618;49.972;8.242;2023-09-18T08:56:22;6.03;;;2.08;;
47856;SDS011;33618;49.972;8.242;2023-09-18T08:58:50;7.32;;;1.95;;
47856;SDS011;33618;49.972;8.242;2023-09-18T09:01:17;7.00;;;1.90;;
47856;SDS011;33618;49.972;8.242;2023-09-18T09:03:45;4.63;;;1.88;;
47856;SDS011;33618;49.972;8.242;2023-09-18T09:06:12;6.88;;;1.95;;
47856;SDS011;33618;49.972;8.242;2023-09-18T09:08:39;5.75;;;1.90;;
47856;SDS011;33618;49.972;8.242;2023-09-18T09:11:07;6.05;;;2.35;;
47856;SDS011;33618;49.972;8.242;2023-09-18T09:13:33;5.70;;;2.00;;
47856;SDS011;33618;49.972;8.242;2023-09-18T09:16:12;4.35;;;1.60;;
47856;SDS011;33618;49.972;8.242;2023-09-18T09:18:49;4.78;;;1.90;;
47856;SDS011;33618;49.972;8.242;2023-09-18T09:21:18;3.22;;;1.48;;
47856;SDS011;33618;49.972;8.242;2023-09-18T09:23:46;5.93;;;1.50;;
47856;SDS011;33618;49.972;8.242;2023-09-18T09:26:19;4.18;;;1.60;;
47856;SDS011;33618;49.972;8.242;2023-09-18T09:28:49;2.47;;;1.10;;
47856;SDS011;33618;49.972;8.242;2023-09-18T09:31:23;4.72;;;1.20;;
47856;SDS011;33618;49.972;8.242;2023-09-18T09:33:55;3.78;;;1.40;;
47856;SDS011;33618;49.972;8.242;2023-09-18T09:36:23;3.72;;;1.27;;
47856;SDS011;33618;49.972;8.242;2023-09-18T09:38:57;1.95;;;1.20;;
47856;SDS011;33618;49.972;8.242;2023-09-18T09:41:25;2.60;;;1.20;;
47856;SDS011;33618;49.972;8.242;2023-09-18T09:43:54;2.83;;;1.05;;
47856;SDS011;33618;49.972;8.242;2023-09-18T09:46:22;2.03;;;1.17;;
47856;SDS011;33618;49.972;8.242;2023-09-18T09:48:58;2.17;;;1.30;;
47856;SDS011;33618;49.972;8.242;2023-09-18T09:51:30;3.20;;;1.33;;
47856;SDS011;33618;49.972;8.242;2023-09-18T09:53:57;3.05;;;1.42;;
47856;SDS011;33618;49.972;8.242;2023-09-18T09:59:22;3.40;;;1.30;;
47856;SDS011;33618;49.972;8.242;2023-09-18T10:01:52;3.65;;;1.27;;
47856;SDS011;33618;49.972;8.242;2023-09-18T10:04:20;2.63;;;1.10;;
47856;SDS011;33618;49.972;8.242;2023-09-18T10:06:51;4.85;;;1.10;;
47856;SDS011;33618;49.972;8.242;2023-09-18T10:09:20;5.20;;;1.10;;
47856;SDS011;33618;49.972;8.242;2023-09-18T10:11:49;3.78;;;1.35;;
47856;SDS011;33618;49.972;8.242;2023-09-18T10:14:19;4.47;;;1.38;;
47856;SDS011;33618;49.972;8.242;2023-09-18T10:16:51;4.95;;;1.42;;
47856;SDS011;33618;49.972;8.242;2023-09-18T10:19:30;2.38;;;1.15;;
47856;SDS011;33618;49.972;8.242;2023-09-18T10:24:54;2.35;;;1.33;;
47856;SDS011;33618;49.972;8.242;2023-09-18T10:27:30;3.50;;;1.35;;
47856;SDS011;33618;49.972;8.242;2023-09-18T10:29:59;2.83;;;1.10;;
47856;SDS011;33618;49.972;8.242;2023-09-18T10:32:31;4.53;;;1.48;;
47856;SDS011;33618;49.972;8.242;2023-09-18T10:35:00;2.50;;;1.10;;
47856;SDS011;33618;49.972;8.242;2023-09-18T10:37:26;3.22;;;1.27;;
47856;SDS011;33618;49.972;8.242;2023-09-18T10:39:55;1.92;;;1.10;;
47856;SDS011;33618;49.972;8.242;2023-09-18T10:42:25;3.85;;;1.40;;
47856;SDS011;33618;49.972;8.242;2023-09-18T10:44:53;1.65;;;1.20;;
47856;SDS011;33618;49.972;8.242;2023-09-18T10:47:20;3.97;;;1.20;;
47856;SDS011;33618;49.972;8.242;2023-09-18T10:49:48;2.95;;;1.35;;
47856;SDS011;33618;49.972;8.242;2023-09-18T10:52:16;3.22;;;1.40;;
47856;SDS011;33618;49.972;8.242;2023-09-18T10:54:43;3.88;;;1.20;;
47856;SDS011;33618;49.972;8.242;2023-09-18T10:57:11;2.80;;;1.20;;
47856;SDS011;33618;49.972;8.242;2023-09-18T10:59:44;2.08;;;1.17;;
47856;SDS011;33618;49.972;8.242;2023-09-18T11:02:15;3.00;;;1.42;;
47856;SDS011;33618;49.972;8.242;2023-09-18T11:04:44;3.58;;;1.20;;
47856;SDS011;33618;49.972;8.242;2023-09-18T11:07:21;3.60;;;1.40;;
47856;SDS011;33618;49.972;8.242;2023-09-18T11:09:48;4.88;;;1.30;;
47856;SDS011;33618;49.972;8.242;2023-09-18T11:12:16;2.42;;;1.10;;
47856;SDS011;33618;49.972;8.242;2023-09-18T11:15:02;2.22;;;1.27;;
47856;SDS011;33618;49.972;8.242;2023-09-18T11:17:39;3.05;;;1.27;;
47856;SDS011;33618;49.972;8.242;2023-09-18T11:28:22;1.15;;;1.00;;
47856;SDS011;33618;49.972;8.242;2023-09-18T11:30:53;3.05;;;1.42;;
47856;SDS011;33618;49.972;8.242;2023-09-18T11:33:30;1.80;;;1.35;;
47856;SDS011;33618;49.972;8.242;2023-09-18T11:36:02;1.67;;;1.15;;
47856;SDS011;33618;49.972;8.242;2023-09-18T11:38:33;2.70;;;1.27;;
47856;SDS011;33618;49.972;8.242;2023-09-18T11:44:31;3.10;;;1.45;;
47856;SDS011;33618;49.972;8.242;2023-09-18T11:46:49;2.30;;;1.25;;
47856;SDS011;33618;49.972;8.242;2023-09-18T11:49:23;3.17;;;1.25;;
47856;SDS011;33618;49.972;8.242;2023-09-18T11:51:57;3.33;;;1.33;;
47856;SDS011;33618;49.972;8.242;2023-09-18T11:54:26;5.85;;;1.50;;
47856;SDS011;33618;49.972;8.242;2023-09-18T11:56:55;2.17;;;1.20;;
47856;SDS011;33618;49.972;8.242;2023-09-18T11:59:39;2.20;;;1.58;;
47856;SDS011;33618;49.972;8.242;2023-09-18T12:02:11;2.28;;;1.27;;
47856;SDS011;33618;49.972;8.242;2023-09-18T12:04:54;3.22;;;1.33;;
47856;SDS011;33618;49.972;8.242;2023-09-18T12:07:21;2.13;;;1.30;;
47856;SDS011;33618;49.972;8.242;2023-09-18T12:09:49;4.75;;;1.40;;
47856;SDS011;33618;49.972;8.242;2023-09-18T12:12:16;1.83;;;1.45;;
47856;SDS011;33618;49.972;8.242;2023-09-18T12:14:44;2.10;;;1.30;;
47856;SDS011;33618;49.972;8.242;2023-09-18T12:17:15;4.65;;;1.50;;
47856;SDS011;33618;49.972;8.242;2023-09-18T12:19:52;2.30;;;1.30;;
47856;SDS011;33618;49.972;8.242;2023-09-18T12:22:29;2.90;;;1.48;;
47856;SDS011;33618;49.972;8.242;2023-09-18T12:25:08;1.92;;;1.20;;
47856;SDS011;33618;49.972;8.242;2023-09-18T12:27:41;4.80;;;1.35;;
47856;SDS011;33618;49.972;8.242;2023-09-18T12:30:08;2.40;;;1.40;;
47856;SDS011;33618;49.972;8.242;2023-09-18T12:32:36;3.90;;;1.20;;
47856;SDS011;33618;49.972;8.242;2023-09-18T12:35:07;2.42;;;1.20;;
47856;SDS011;33618;49.972;8.242;2023-09-18T12:37:38;2.78;;;1.30;;
47856;SDS011;33618;49.972;8.242;2023-09-18T12:40:07;4.07;;;1.30;;
47856;SDS011;33618;49.972;8.242;2023-09-18T12:42:54;2.45;;;1.33;;
47856;SDS011;33618;49.972;8.242;2023-09-18T12:45:23;2.10;;;1.20;;
47856;SDS011;33618;49.972;8.242;2023-09-18T12:47:50;4.00;;;1.50;;
47856;SDS011;33618;49.972;8.242;2023-09-18T12:50:18;1.58;;;1.35;;
47856;SDS011;33618;49.972;8.242;2023-09-18T12:52:45;3.38;;;1.42;;
47856;SDS011;33618;49.972;8.242;2023-09-18T12:55:22;2.90;;;1.45;;
47856;SDS011;33618;49.972;8.242;2023-09-18T12:57:53;2.40;;;1.45;;
47856;SDS011;33618;49.972;8.242;2023-09-18T13:00:22;4.03;;;1.33;;
47856;SDS011;33618;49.972;8.242;2023-09-18T13:02:50;3.85;;;1.50;;
47856;SDS011;33618;49.972;8.242;2023-09-18T13:05:21;2.97;;;1.50;;
47856;SDS011;33618;49.972;8.242;2023-09-18T13:07:53;3.25;;;1.77;;
47856;SDS011;33618;49.972;8.242;2023-09-18T13:10:20;3.67;;;1.70;;
47856;SDS011;33618;49.972;8.242;2023-09-18T13:12:52;2.63;;;1.40;;
47856;SDS011;33618;49.972;8.242;2023-09-18T13:17:57;4.07;;;1.30;;
47856;SDS011;33618;49.972;8.242;2023-09-18T13:20:26;2.28;;;1.30;;
47856;SDS011;33618;49.972;8.242;2023-09-18T13:22:59;3.05;;;1.40;;
47856;SDS011;33618;49.972;8.242;2023-09-18T13:25:31;2.58;;;1.42;;
47856;SDS011;33618;49.972;8.242;2023-09-18T13:28:00;2.13;;;1.45;;
47856;SDS011;33618;49.972;8.242;2023-09-18T13:30:29;3.58;;;1.52;;
47856;SDS011;33618;49.972;8.242;2023-09-18T13:33:01;2.80;;;1.17;;
47856;SDS011;33618;49.972;8.242;2023-09-18T13:35:30;2.85;;;1.40;;
47856;SDS011;33618;49.972;8.242;2023-09-18T13:37:58;3.63;;;1.70;;
47856;SDS011;33618;49.972;8.242;2023-09-18T13:40:25;3.97;;;1.60;;
47856;SDS011;33618;49.972;8.242;2023-09-18T13:42:53;3.45;;;1.30;;
47856;SDS011;33618;49.972;8.242;2023-09-18T13:45:20;3.92;;;1.73;;
47856;SDS011;33618;49.972;8.242;2023-09-18T13:47:47;3.05;;;1.60;;
47856;SDS011;33618;49.972;8.242;2023-09-18T13:50:16;3.20;;;1.67;;
47856;SDS011;33618;49.972;8.242;2023-09-18T13:52:43;4.13;;;1.55;;
47856;SDS011;33618;49.972;8.242;2023-09-18T13:55:10;6.50;;;1.77;;
47856;SDS011;33618;49.972;8.242;2023-09-18T13:57:37;2.72;;;1.63;;
47856;SDS011;33618;49.972;8.242;2023-09-18T14:00:06;1.40;;;1.30;;
47856;SDS011;33618;49.972;8.242;2023-09-18T14:02:37;4.97;;;1.48;;
47856;SDS011;33618;49.972;8.242;2023-09-18T14:05:06;2.55;;;1.50;;
47856;SDS011;33618;49.972;8.242;2023-09-18T14:07:34;3.65;;;1.60;;
47856;SDS011;33618;49.972;8.242;2023-09-18T14:10:07;2.55;;;1.60;;
47856;SDS011;33618;49.972;8.242;2023-09-18T14:12:40;2.72;;;1.50;;
47856;SDS011;33618;49.972;8.242;2023-09-18T14:15:10;3.22;;;1.40;;
47856;SDS011;33618;49.972;8.242;2023-09-18T14:17:37;2.85;;;1.50;;
47856;SDS011;33618;49.972;8.242;2023-09-18T14:20:05;1.50;;;1.38;;
47856;SDS011;33618;49.972;8.242;2023-09-18T14:22:36;2.78;;;1.60;;
47856;SDS011;33618;49.972;8.242;2023-09-18T14:25:03;5.88;;;1.63;;
47856;SDS011;33618;49.972;8.242;2023-09-18T14:27:33;1.98;;;1.52;;
47856;SDS011;33618;49.972;8.242;2023-09-18T14:30:02;3.35;;;1.67;;
47856;SDS011;33618;49.972;8.242;2023-09-18T14:32:33;1.45;;;1.33;;
47856;SDS011;33618;49.972;8.242;2023-09-18T14:35:04;3.03;;;1.45;;
47856;SDS011;33618;49.972;8.242;2023-09-18T14:37:34;1.75;;;1.40;;
47856;SDS011;33618;49.972;8.242;2023-09-18T14:40:02;2.65;;;1.40;;
47856;SDS011;33618;49.972;8.242;2023-09-18T14:42:30;2.30;;;1.50;;
47856;SDS011;33618;49.972;8.242;2023-09-18T14:44:57;4.18;;;1.70;;
47856;SDS011;33618;49.972;8.242;2023-09-18T14:47:24;4.20;;;1.65;;
47856;SDS011;33618;49.972;8.242;2023-09-18T14:49:51;2.08;;;1.30;;
47856;SDS011;33618;49.972;8.242;2023-09-18T14:52:18;3.00;;;1.35;;
47856;SDS011;33618;49.972;8.242;2023-09-18T14:54:47;5.03;;;1.52;;
47856;SDS011;33618;49.972;8.242;2023-09-18T14:57:14;3.63;;;1.40;;
47856;SDS011;33618;49.972;8.242;2023-09-18T14:59:41;3.78;;;1.48;;
47856;SDS011;33618;49.972;8.242;2023-09-18T15:02:14;3.13;;;1.40;;
47856;SDS011;33618;49.972;8.242;2023-09-18T15:04:41;2.28;;;1.35;;
47856;SDS011;33618;49.972;8.242;2023-09-18T15:07:08;2.10;;;1.50;;
47856;SDS011;33618;49.972;8.242;2023-09-18T15:09:37;2.67;;;1.50;;
47856;SDS011;33618;49.972;8.242;2023-09-18T15:12:04;4.95;;;1.35;;